Time;durP1;ratioP1;P1;durP2;ratioP2;P2;SDS_P1;SDS_P2;PMS_P1;PMS_P2;Temp;Humidity;BMP_temperature;BMP_pressure;BME280_temperature;BME280_humidity;BME280_pressure;Samples;Min_cycle;Max_cycle;Signal;HPM_P1;HPM_P2
2021/10/20 00:02:18;;;;;;;6.45;5.35;;;;;;;;;;5015145;28;20044;-75
2021/10/20 00:04:46;;;;;;;6.10;5.30;;;;;;;;;;5014981;28;20041;-76
2021/10/20 00:07:16;;;;;;;7.93;5.22;;;;;;;;;;5015043;28;20045;-75
2021/10/20 00:09:45;;;;;;;7.27;5.83;;;;;;;;;;5013963;28;20050;-75
2021/10/20 00:12:14;;;;;;;6.00;5.30;;;;;;;;;;5014782;28;20272;-74
2021/10/20 00:14:42;;;;;;;7.63;5.38;;;;;;;;;;5014611;28;20402;-74
2021/10/20 00:17:09;;;;;;;6.13;4.90;;;;;;;;;;5013565;28;20077;-76
2021/10/20 00:19:37;;;;;;;8.70;5.38;;;;;;;;;;5013523;28;20056;-75
2021/10/20 00:22:04;;;;;;;7.63;5.55;;;;;;;;;;5013510;28;20056;-73
2021/10/20 00:24:32;;;;;;;5.78;5.07;;;;;;;;;;5014561;28;20054;-74
2021/10/20 00:27:00;;;;;;;7.95;4.97;;;;;;;;;;5013741;28;20065;-74
2021/10/20 00:29:28;;;;;;;7.95;5.45;;;;;;;;;;5012892;28;20050;-75
2021/10/20 00:31:55;;;;;;;6.20;5.20;;;;;;;;;;4996645;28;20086;-74
2021/10/20 00:34:23;;;;;;;6.07;5.15;;;;;;;;;;5014422;28;20038;-75
2021/10/20 00:36:51;;;;;;;8.05;5.53;;;;;;;;;;5014212;28;20521;-74
2021/10/20 00:39:19;;;;;;;7.93;5.72;;;;;;;;;;5014269;28;20052;-73
2021/10/20 00:41:47;;;;;;;5.95;5.35;;;;;;;;;;5012417;28;20498;-73
2021/10/20 00:44:15;;;;;;;6.95;5.35;;;;;;;;;;5014593;28;20049;-73
2021/10/20 00:46:45;;;;;;;9.82;5.53;;;;;;;;;;5012709;28;20048;-75
2021/10/20 00:49:13;;;;;;;8.98;5.28;;;;;;;;;;5014448;28;20068;-75
2021/10/20 00:51:41;;;;;;;8.63;5.72;;;;;;;;;;5013978;28;20060;-75
2021/10/20 00:54:10;;;;;;;6.93;5.60;;;;;;;;;;5012832;28;20038;-75
2021/10/20 00:56:38;;;;;;;9.18;5.55;;;;;;;;;;5013449;28;20121;-73
2021/10/20 00:59:05;;;;;;;6.90;5.70;;;;;;;;;;5013050;28;20045;-73
2021/10/20 01:01:33;;;;;;;7.07;5.72;;;;;;;;;;5022653;28;20590;-74
2021/10/20 01:04:01;;;;;;;9.60;5.72;;;;;;;;;;5029162;28;20044;-74
2021/10/20 01:06:30;;;;;;;6.63;5.72;;;;;;;;;;5033642;28;20033;-75
2021/10/20 01:08:58;;;;;;;6.50;5.90;;;;;;;;;;5032781;28;20037;-73
2021/10/20 01:11:25;;;;;;;8.88;6.13;;;;;;;;;;5031782;28;20044;-75
2021/10/20 01:13:54;;;;;;;7.70;5.90;;;;;;;;;;5032339;28;20455;-73
2021/10/20 01:16:21;;;;;;;11.25;6.72;;;;;;;;;;5033268;28;20045;-76
2021/10/20 01:18:51;;;;;;;10.57;6.22;;;;;;;;;;5033357;28;20041;-74
2021/10/20 01:21:20;;;;;;;6.72;5.90;;;;;;;;;;5033439;28;20044;-74
2021/10/20 01:23:48;;;;;;;9.50;6.32;;;;;;;;;;5031788;28;20055;-76
2021/10/20 01:26:16;;;;;;;7.10;6.40;;;;;;;;;;5032431;28;20046;-76
2021/10/20 01:28:44;;;;;;;6.85;5.75;;;;;;;;;;5033284;28;20057;-73
2021/10/20 01:31:15;;;;;;;9.18;6.03;;;;;;;;;;5032118;28;20613;-73
2021/10/20 01:33:43;;;;;;;8.57;5.97;;;;;;;;;;5033048;28;20048;-76
2021/10/20 01:36:10;;;;;;;11.68;6.55;;;;;;;;;;5032979;28;20123;-75
2021/10/20 01:38:38;;;;;;;8.80;6.25;;;;;;;;;;5032863;28;20037;-75
2021/10/20 01:41:08;;;;;;;7.03;5.95;;;;;;;;;;5032755;28;20045;-75
2021/10/20 01:43:46;;;;;;;8.27;6.40;;;;;;;;;;5032953;28;20045;-76
2021/10/20 01:46:14;;;;;;;7.50;6.75;;;;;;;;;;5033228;28;20041;-73
2021/10/20 01:48:42;;;;;;;6.93;6.28;;;;;;;;;;5033573;28;20064;-73
2021/10/20 01:51:10;;;;;;;8.20;6.60;;;;;;;;;;5031700;28;20073;-75
2021/10/20 01:53:39;;;;;;;9.18;6.50;;;;;;;;;;5032347;28;20048;-74
2021/10/20 01:56:07;;;;;;;6.90;6.20;;;;;;;;;;5032617;28;20041;-75
2021/10/20 01:58:35;;;;;;;9.75;6.43;;;;;;;;;;5032929;28;20041;-73
2021/10/20 02:01:07;;;;;;;7.50;6.80;;;;;;;;;;5031896;28;20045;-74
2021/10/20 02:03:35;;;;;;;;;;;;;;;;;;5033198;28;20055;-75
2021/10/20 02:06:15;;;;;;;6.97;6.07;;;;;;;;;;5032829;28;19928;-76
2021/10/20 02:08:43;;;;;;;8.20;6.07;;;;;;;;;;5031315;28;20041;-74
2021/10/20 02:11:11;;;;;;;7.30;6.28;;;;;;;;;;5031500;28;20053;-73
2021/10/20 02:13:39;;;;;;;7.40;6.10;;;;;;;;;;5031685;28;20037;-76
2021/10/20 02:16:07;;;;;;;8.35;6.45;;;;;;;;;;5032675;28;20065;-76
2021/10/20 02:18:34;;;;;;;7.03;6.30;;;;;;;;;;5031383;28;20048;-76
2021/10/20 02:21:02;;;;;;;6.93;6.07;;;;;;;;;;5031900;28;20045;-75
2021/10/20 02:23:30;;;;;;;8.27;6.35;;;;;;;;;;5031166;28;20041;-76
2021/10/20 02:25:58;;;;;;;7.88;6.35;;;;;;;;;;5032680;28;20057;-74
2021/10/20 02:28:26;;;;;;;9.60;6.47;;;;;;;;;;5031364;28;20145;-75
2021/10/20 02:30:54;;;;;;;6.78;6.13;;;;;;;;;;5032618;28;20673;-73
2021/10/20 02:33:22;;;;;;;9.85;5.90;;;;;;;;;;5015074;28;20041;-73
2021/10/20 02:35:51;;;;;;;6.18;5.57;;;;;;;;;;5032556;28;20033;-73
2021/10/20 02:38:19;;;;;;;7.82;6.38;;;;;;;;;;5033747;28;20041;-75
2021/10/20 02:40:46;;;;;;;7.63;6.30;;;;;;;;;;5018758;28;20509;-73
2021/10/20 02:43:15;;;;;;;7.82;6.15;;;;;;;;;;5036327;28;20037;-76
2021/10/20 02:45:42;;;;;;;7.78;5.65;;;;;;;;;;5018631;28;20049;-75
2021/10/20 02:48:10;;;;;;;7.10;6.40;;;;;;;;;;5036506;28;20045;-74
2021/10/20 02:50:37;;;;;;;7.75;5.90;;;;;;;;;;5035578;28;20120;-75
2021/10/20 02:53:05;;;;;;;8.02;5.90;;;;;;;;;;5035538;28;20033;-75
2021/10/20 02:55:33;;;;;;;8.85;5.90;;;;;;;;;;5035773;28;20049;-75
2021/10/20 02:58:02;;;;;;;6.88;6.18;;;;;;;;;;5035891;28;20487;-75
2021/10/20 03:00:29;;;;;;;8.05;6.28;;;;;;;;;;5035557;28;20057;-75
2021/10/20 03:02:57;;;;;;;7.25;6.40;;;;;;;;;;5018353;28;20512;-75
2021/10/20 03:05:25;;;;;;;7.60;6.15;;;;;;;;;;5034336;28;20391;-76
2021/10/20 03:07:54;;;;;;;9.23;6.82;;;;;;;;;;5034401;28;20041;-75
2021/10/20 03:10:23;;;;;;;12.07;7.22;;;;;;;;;;5034786;28;20041;-76
2021/10/20 03:12:51;;;;;;;9.70;7.90;;;;;;;;;;5034679;28;20128;-82
2021/10/20 03:15:19;;;;;;;20.17;14.70;;;;;;;;;;5035999;28;20068;-78
2021/10/20 03:17:49;;;;;;;14.73;12.35;;;;;;;;;;5035760;28;20041;-76
2021/10/20 03:20:16;;;;;;;14.02;9.68;;;;;;;;;;5039852;28;20055;-75
2021/10/20 03:22:47;;;;;;;10.95;9.02;;;;;;;;;;5035132;28;20052;-78
2021/10/20 03:25:15;;;;;;;10.50;7.85;;;;;;;;;;5017992;28;20418;-81
2021/10/20 03:27:45;;;;;;;13.73;9.20;;;;;;;;;;5034289;28;20415;-77
2021/10/20 03:30:15;;;;;;;10.98;8.80;;;;;;;;;;5034518;28;20049;-77
2021/10/20 03:32:43;;;;;;;8.55;7.70;;;;;;;;;;5034975;28;20037;-77
2021/10/20 03:35:12;;;;;;;9.23;7.82;;;;;;;;;;5033382;28;20038;-76
2021/10/20 03:37:40;;;;;;;10.55;8.30;;;;;;;;;;5035141;28;20505;-78
2021/10/20 03:40:10;;;;;;;8.88;7.97;;;;;;;;;;5034846;28;20410;-83
2021/10/20 03:42:38;;;;;;;9.75;7.55;;;;;;;;;;5036549;28;20422;-77
2021/10/20 03:45:07;;;;;;;7.40;6.68;;;;;;;;;;5034101;28;20045;-83
2021/10/20 03:47:34;;;;;;;7.32;6.63;;;;;;;;;;5036460;28;20042;-77
2021/10/20 03:50:02;;;;;;;6.90;6.20;;;;;;;;;;5034036;28;20120;-82
2021/10/20 03:52:56;;;;;;;6.00;5.40;;;;;;;;;;5018879;28;20128;-83
2021/10/20 03:55:23;;;;;;;;;;;;;;;;;;5036468;28;20037;-78
2021/10/20 03:57:52;;;;;;;5.60;5.10;;;;;;;;;;5036056;28;19931;-83
2021/10/20 04:00:20;;;;;;;5.70;5.10;;;;;;;;;;5035922;28;20047;-77
2021/10/20 04:02:48;;;;;;;7.63;5.40;;;;;;;;;;5035009;28;20144;-83
2021/10/20 04:05:17;;;;;;;9.40;5.60;;;;;;;;;;5034480;28;20052;-77
2021/10/20 04:07:48;;;;;;;6.57;5.32;;;;;;;;;;5034256;28;20096;-83
2021/10/20 04:10:23;;;;;;;7.82;5.60;;;;;;;;;;5034318;28;20040;-77
2021/10/20 04:12:53;;;;;;;6.82;5.55;;;;;;;;;;5016981;28;20091;-78
2021/10/20 04:15:22;;;;;;;5.50;5.00;;;;;;;;;;5034367;28;20042;-77
2021/10/20 04:17:50;;;;;;;7.07;5.35;;;;;;;;;;5034265;28;20069;-78
2021/10/20 04:20:19;;;;;;;6.63;5.72;;;;;;;;;;5033268;28;20151;-84
2021/10/20 04:22:48;;;;;;;6.35;5.47;;;;;;;;;;5016980;28;20140;-78
2021/10/20 04:25:17;;;;;;;7.68;5.90;;;;;;;;;;5033576;28;20049;-76
2021/10/20 04:27:46;;;;;;;9.30;5.85;;;;;;;;;;5017272;28;20236;-83
2021/10/20 04:30:15;;;;;;;6.88;5.53;;;;;;;;;;5034750;28;20049;-78
2021/10/20 04:32:43;;;;;;;9.15;6.07;;;;;;;;;;5032303;28;20053;-78
2021/10/20 04:35:11;;;;;;;8.23;6.38;;;;;;;;;;5034841;28;20068;-83
2021/10/20 04:37:41;;;;;;;8.13;6.35;;;;;;;;;;5033296;28;20125;-78
2021/10/20 04:40:10;;;;;;;7.00;5.75;;;;;;;;;;5033008;28;20045;-78
2021/10/20 04:42:40;;;;;;;10.30;6.30;;;;;;;;;;5033980;28;20037;-78
2021/10/20 04:45:09;;;;;;;9.27;6.53;;;;;;;;;;5033085;28;20124;-78
2021/10/20 04:47:36;;;;;;;7.30;6.47;;;;;;;;;;5032424;28;20056;-83
2021/10/20 04:50:08;;;;;;;7.60;6.07;;;;;;;;;;5033632;28;20044;-77
2021/10/20 04:52:36;;;;;;;7.93;6.40;;;;;;;;;;5032508;28;20494;-76
2021/10/20 04:55:06;;;;;;;8.48;6.80;;;;;;;;;;5034193;28;20095;-77
2021/10/20 04:57:34;;;;;;;8.63;6.60;;;;;;;;;;5033307;28;20041;-77
2021/10/20 05:00:02;;;;;;;7.32;6.28;;;;;;;;;;5033748;28;20033;-84
2021/10/20 05:02:35;;;;;;;7.90;6.78;;;;;;;;;;5032006;28;20049;-79
2021/10/20 05:05:04;;;;;;;8.20;6.50;;;;;;;;;;5033861;28;20561;-84
2021/10/20 05:07:32;;;;;;;7.00;6.00;;;;;;;;;;5031870;28;20037;-79
2021/10/20 05:10:01;;;;;;;12.27;6.25;;;;;;;;;;5033142;28;20057;-84
2021/10/20 05:12:28;;;;;;;7.50;6.20;;;;;;;;;;5034183;28;20046;-78
2021/10/20 05:14:56;;;;;;;10.10;6.22;;;;;;;;;;5032096;28;20076;-79
2021/10/20 05:17:24;;;;;;;9.20;6.22;;;;;;;;;;5033054;28;20065;-84
2021/10/20 05:19:52;;;;;;;7.97;6.15;;;;;;;;;;5033259;28;20037;-79
2021/10/20 05:22:19;;;;;;;7.88;5.60;;;;;;;;;;5031995;28;20477;-84
2021/10/20 05:24:47;;;;;;;9.30;6.10;;;;;;;;;;5032330;28;20045;-83
2021/10/20 05:27:15;;;;;;;8.32;6.00;;;;;;;;;;5032550;28;20410;-84
2021/10/20 05:29:44;;;;;;;11.32;5.80;;;;;;;;;;5014184;28;20045;-79
2021/10/20 05:32:11;;;;;;;8.90;5.93;;;;;;;;;;5030953;28;20033;-79
2021/10/20 05:34:39;;;;;;;7.13;5.53;;;;;;;;;;5033188;28;20483;-77
2021/10/20 05:37:08;;;;;;;7.10;5.30;;;;;;;;;;5033069;28;20120;-78
2021/10/20 05:39:37;;;;;;;9.88;5.15;;;;;;;;;;5031608;28;20046;-77
2021/10/20 05:42:07;;;;;;;6.07;4.95;;;;;;;;;;5033098;28;20055;-75
2021/10/20 05:44:34;;;;;;;9.68;5.47;;;;;;;;;;5031469;28;20046;-78
2021/10/20 05:47:02;;;;;;;10.10;5.63;;;;;;;;;;5032887;28;20100;-76
2021/10/20 05:49:29;;;;;;;6.72;5.28;;;;;;;;;;5031898;28;20049;-77
2021/10/20 05:51:58;;;;;;;6.97;5.22;;;;;;;;;;5031480;28;20065;-76
2021/10/20 05:54:25;;;;;;;7.45;4.90;;;;;;;;;;5032895;28;20044;-76
2021/10/20 05:56:53;;;;;;;7.07;5.07;;;;;;;;;;5031684;28;20088;-78
2021/10/20 05:59:23;;;;;;;8.70;5.40;;;;;;;;;;5030945;28;20045;-84
2021/10/20 06:01:54;;;;;;;7.15;5.40;;;;;;;;;;5032287;28;20128;-78
2021/10/20 06:04:21;;;;;;;8.68;4.97;;;;;;;;;;5032121;28;20051;-84
2021/10/20 06:06:49;;;;;;;6.28;5.10;;;;;;;;;;5031597;28;20103;-75
2021/10/20 06:09:35;;;;;;;8.05;4.50;;;;;;;;;;5031559;28;20049;-78
2021/10/20 06:12:03;;;;;;;10.45;5.40;;;;;;;;;;5032029;28;20046;-77
2021/10/20 06:14:49;;;;;;;11.57;5.30;;;;;;;;;;5036107;28;20029;-78
2021/10/20 06:17:18;;;;;;;6.97;5.22;;;;;;;;;;5035296;28;20041;-84
2021/10/20 06:19:48;;;;;;;8.73;4.80;;;;;;;;;;5035446;28;20112;-78
2021/10/20 06:22:16;;;;;;;5.75;4.45;;;;;;;;;;5035219;28;20052;-75
2021/10/20 06:24:44;;;;;;;8.82;4.80;;;;;;;;;;5036524;28;20052;-78
2021/10/20 06:27:11;;;;;;;6.90;4.45;;;;;;;;;;5018889;28;20049;-78
2021/10/20 06:29:40;;;;;;;6.80;4.72;;;;;;;;;;5034442;28;20053;-76
2021/10/20 06:32:07;;;;;;;6.70;4.72;;;;;;;;;;5034457;28;20378;-77
2021/10/20 06:34:35;;;;;;;6.13;4.80;;;;;;;;;;5036119;28;20505;-84
2021/10/20 06:37:03;;;;;;;7.80;5.03;;;;;;;;;;5035864;28;20029;-75
2021/10/20 06:39:31;;;;;;;9.18;4.53;;;;;;;;;;5018192;28;20050;-77
2021/10/20 06:42:00;;;;;;;8.50;4.90;;;;;;;;;;5035126;28;20071;-75
2021/10/20 06:44:28;;;;;;;10.25;4.55;;;;;;;;;;5035483;28;20049;-84
2021/10/20 06:46:56;;;;;;;9.60;5.22;;;;;;;;;;5034910;28;20073;-84
2021/10/20 06:49:25;;;;;;;9.30;5.82;;;;;;;;;;5034969;28;20053;-76
2021/10/20 06:51:52;;;;;;;22.45;6.55;;;;;;;;;;5034462;28;20140;-78
2021/10/20 06:54:21;;;;;;;7.32;5.05;;;;;;;;;;5036126;28;20043;-77
2021/10/20 06:56:49;;;;;;;8.82;4.38;;;;;;;;;;5036043;28;20048;-84
2021/10/20 06:59:20;;;;;;;5.95;4.43;;;;;;;;;;5018286;28;20053;-78
2021/10/20 07:01:51;;;;;;;5.60;3.90;;;;;;;;;;5034787;28;20069;-79
2021/10/20 07:04:19;;;;;;;12.27;5.70;;;;;;;;;;5035837;28;20045;-77
2021/10/20 07:06:50;;;;;;;9.48;5.15;;;;;;;;;;5034446;28;20483;-77
2021/10/20 07:09:22;;;;;;;10.50;4.82;;;;;;;;;;5036139;28;20055;-77
2021/10/20 07:11:50;;;;;;;6.30;4.47;;;;;;;;;;5017601;28;20049;-76
2021/10/20 07:14:18;;;;;;;11.13;5.32;;;;;;;;;;5034012;28;20568;-75
2021/10/20 07:16:46;;;;;;;9.80;5.00;;;;;;;;;;5035230;28;20041;-84
2021/10/20 07:19:13;;;;;;;8.45;5.28;;;;;;;;;;5034067;28;20112;-75
2021/10/20 07:21:41;;;;;;;9.60;5.43;;;;;;;;;;5034244;28;20076;-78
2021/10/20 07:24:08;;;;;;;13.80;5.70;;;;;;;;;;5034214;28;20045;-75
2021/10/20 07:26:36;;;;;;;8.02;5.75;;;;;;;;;;5035140;28;20045;-77
2021/10/20 07:29:04;;;;;;;8.93;5.70;;;;;;;;;;5033829;28;20081;-84
2021/10/20 07:31:31;;;;;;;6.35;4.70;;;;;;;;;;5017781;28;20052;-78
2021/10/20 07:34:00;;;;;;;7.60;4.20;;;;;;;;;;5035034;28;20091;-84
2021/10/20 07:36:28;;;;;;;7.93;5.28;;;;;;;;;;5033999;28;20045;-76
2021/10/20 07:38:58;;;;;;;6.53;5.03;;;;;;;;;;5033670;28;20042;-77
2021/10/20 07:41:25;;;;;;;7.18;4.97;;;;;;;;;;5033352;28;20565;-75
2021/10/20 07:43:53;;;;;;;6.85;4.90;;;;;;;;;;5033510;28;20498;-76
2021/10/20 07:46:20;;;;;;;10.38;4.90;;;;;;;;;;5035360;28;20095;-83
2021/10/20 07:48:48;;;;;;;12.10;4.70;;;;;;;;;;5017196;28;20498;-76
2021/10/20 07:51:18;;;;;;;6.78;5.13;;;;;;;;;;5033962;28;20517;-76
2021/10/20 07:53:46;;;;;;;8.30;5.45;;;;;;;;;;5033531;28;20049;-75
2021/10/20 07:56:14;;;;;;;9.02;4.90;;;;;;;;;;5034588;28;20047;-76
2021/10/20 07:58:42;;;;;;;11.80;4.82;;;;;;;;;;5033690;28;20037;-75
2021/10/20 08:01:11;;;;;;;7.82;4.88;;;;;;;;;;5034543;28;20044;-75
2021/10/20 08:03:39;;;;;;;7.47;4.90;;;;;;;;;;5034818;28;20041;-83
2021/10/20 08:06:07;;;;;;;7.60;5.32;;;;;;;;;;5035163;28;20040;-83
2021/10/20 08:08:34;;;;;;;8.05;4.30;;;;;;;;;;5033951;28;20463;-76
2021/10/20 08:11:02;;;;;;;8.50;5.20;;;;;;;;;;5033805;28;20049;-75
2021/10/20 08:13:29;;;;;;;9.30;4.22;;;;;;;;;;5034456;28;20403;-76
2021/10/20 08:15:57;;;;;;;6.60;4.45;;;;;;;;;;5033303;28;20497;-75
2021/10/20 08:18:24;;;;;;;6.63;4.63;;;;;;;;;;5032928;28;20380;-75
2021/10/20 08:20:53;;;;;;;7.07;4.93;;;;;;;;;;5033272;28;20041;-77
2021/10/20 08:23:20;;;;;;;8.90;5.43;;;;;;;;;;5034292;28;20077;-75
2021/10/20 08:25:48;;;;;;;6.38;4.03;;;;;;;;;;5033743;28;20041;-75
2021/10/20 08:28:15;;;;;;;8.13;4.82;;;;;;;;;;5108125;23;20986;-74
2021/10/20 08:30:46;;;;;;;6.57;4.60;;;;;;;;;;4977452;28;20045;-76
2021/10/20 08:33:16;;;;;;;10.30;4.90;;;;;;;;;;4994388;28;20070;-84
2021/10/20 08:35:43;;;;;;;10.85;5.60;;;;;;;;;;4994432;28;20053;-75
2021/10/20 08:38:11;;;;;;;7.95;5.00;;;;;;;;;;4993446;28;20077;-77
2021/10/20 08:40:41;;;;;;;6.88;4.60;;;;;;;;;;4994103;28;20038;-83
2021/10/20 08:43:09;;;;;;;6.13;4.40;;;;;;;;;;4993480;28;20160;-76
2021/10/20 08:45:37;;;;;;;6.28;4.38;;;;;;;;;;4994523;28;20042;-74
2021/10/20 08:48:05;;;;;;;7.57;4.65;;;;;;;;;;4993198;28;20046;-76
2021/10/20 08:50:34;;;;;;;6.03;4.50;;;;;;;;;;4994545;28;20046;-74
2021/10/20 08:53:01;;;;;;;5.30;4.57;;;;;;;;;;4992852;28;20039;-76
2021/10/20 08:55:30;;;;;;;5.65;4.28;;;;;;;;;;4993752;28;20042;-74
2021/10/20 08:57:59;;;;;;;7.43;4.50;;;;;;;;;;4994352;28;20042;-76
2021/10/20 09:00:27;;;;;;;5.60;4.72;;;;;;;;;;4992719;28;20129;-76
2021/10/20 09:02:55;;;;;;;7.78;4.82;;;;;;;;;;4993887;28;20518;-74
2021/10/20 09:05:25;;;;;;;6.78;4.57;;;;;;;;;;4994209;28;20046;-84
2021/10/20 09:07:56;;;;;;;7.43;4.07;;;;;;;;;;4993862;28;20042;-75
2021/10/20 09:10:25;;;;;;;7.28;4.30;;;;;;;;;;4994054;28;20125;-76
2021/10/20 09:12:58;;;;;;;4.82;3.70;;;;;;;;;;4994020;28;20039;-76
2021/10/20 09:15:28;;;;;;;6.78;4.55;;;;;;;;;;4994180;28;20407;-76
2021/10/20 09:17:58;;;;;;;5.95;4.53;;;;;;;;;;4994006;28;20038;-76
2021/10/20 09:20:34;;;;;;;5.07;4.43;;;;;;;;;;4994096;28;20042;-84
2021/10/20 09:23:02;;;;;;;5.53;4.22;;;;;;;;;;4993624;28;20116;-83
2021/10/20 09:25:41;;;;;;;5.55;4.63;;;;;;;;;;4993280;28;20053;-75
2021/10/20 09:28:13;;;;;;;5.82;4.60;;;;;;;;;;4993692;28;20468;-83
2021/10/20 09:30:42;;;;;;;8.23;4.78;;;;;;;;;;4991619;28;20080;-83
2021/10/20 09:33:09;;;;;;;6.07;4.65;;;;;;;;;;4993559;28;20388;-74
2021/10/20 09:35:38;;;;;;;8.98;5.15;;;;;;;;;;4992401;28;20105;-74
2021/10/20 09:38:06;;;;;;;7.75;4.60;;;;;;;;;;4993507;28;20480;-74
2021/10/20 09:40:37;;;;;;;7.07;5.00;;;;;;;;;;4991964;28;20411;-83
2021/10/20 09:43:05;;;;;;;6.43;5.80;;;;;;;;;;4993867;28;20152;-83
2021/10/20 09:45:36;;;;;;;5.70;4.22;;;;;;;;;;4993803;28;20042;-74
2021/10/20 09:48:24;;;;;;;5.60;4.47;;;;;;;;;;4993547;28;20070;-76
2021/10/20 09:50:55;;;;;;;5.38;4.20;;;;;;;;;;4993419;28;20046;-76
2021/10/20 09:53:25;;;;;;;5.88;4.30;;;;;;;;;;4992155;28;20125;-84
2021/10/20 09:55:53;;;;;;;4.70;4.20;;;;;;;;;;4991728;28;20046;-76
2021/10/20 09:58:21;;;;;;;4.30;3.88;;;;;;;;;;4993381;28;20044;-77
2021/10/20 10:00:49;;;;;;;5.93;4.00;;;;;;;;;;4993362;28;20057;-74
2021/10/20 10:03:19;;;;;;;4.93;4.38;;;;;;;;;;4993164;28;20043;-75
2021/10/20 10:05:47;;;;;;;4.43;3.50;;;;;;;;;;4992977;28;20042;-76
2021/10/20 10:08:15;;;;;;;5.43;3.30;;;;;;;;;;4991926;28;20105;-76
2021/10/20 10:10:44;;;;;;;6.05;3.65;;;;;;;;;;4993214;28;20050;-76
2021/10/20 10:13:17;;;;;;;9.52;4.53;;;;;;;;;;4993478;28;20498;-83
2021/10/20 10:15:46;;;;;;;4.60;3.30;;;;;;;;;;4993532;28;20049;-74
2021/10/20 10:18:14;;;;;;;4.22;3.08;;;;;;;;;;4992133;28;20117;-76
2021/10/20 10:20:44;;;;;;;3.70;3.40;;;;;;;;;;4991542;28;20476;-75
2021/10/20 10:23:25;;;;;;;5.53;3.58;;;;;;;;;;4991728;28;20057;-76
2021/10/20 10:26:00;;;;;;;3.60;3.30;;;;;;;;;;4993883;28;20639;-77
2021/10/20 10:28:31;;;;;;;3.55;3.20;;;;;;;;;;4993093;28;20133;-83
2021/10/20 10:31:05;;;;;;;4.25;3.85;;;;;;;;;;4992795;28;20389;-75
2021/10/20 10:33:38;;;;;;;5.53;3.55;;;;;;;;;;4992892;28;20038;-75
2021/10/20 10:36:14;;;;;;;3.40;3.10;;;;;;;;;;4991612;28;20435;-76
2021/10/20 10:38:43;;;;;;;3.85;3.28;;;;;;;;;;4991893;28;20088;-83
2021/10/20 10:41:23;;;;;;;5.30;3.55;;;;;;;;;;4992425;28;20042;-77
2021/10/20 10:44:07;;;;;;;4.38;3.40;;;;;;;;;;4993251;28;20038;-74
2021/10/20 10:46:38;;;;;;;3.53;3.10;;;;;;;;;;4975777;28;20054;-76
2021/10/20 10:49:21;;;;;;;4.25;3.20;;;;;;;;;;4993061;28;20049;-76
2021/10/20 10:52:28;;;;;;;4.70;3.30;;;;;;;;;;4992829;28;20430;-77
2021/10/20 10:55:01;;;;;;;3.35;3.05;;;;;;;;;;4933149;29;20044;-75
2021/10/20 10:57:44;;;;;;;3.30;3.00;;;;;;;;;;4933215;29;20067;-75
2021/10/20 11:00:23;;;;;;;5.68;3.75;;;;;;;;;;4935746;29;20066;-76
2021/10/20 11:02:54;;;;;;;4.25;3.70;;;;;;;;;;4920588;29;20138;-82
2021/10/20 11:05:31;;;;;;;3.92;3.25;;;;;;;;;;4935836;29;20151;-74
2021/10/20 11:08:03;;;;;;;3.35;3.05;;;;;;;;;;4936976;29;20082;-76
2021/10/20 11:10:32;;;;;;;3.92;3.10;;;;;;;;;;4936248;29;20073;-77
2021/10/20 11:13:00;;;;;;;4.40;3.00;;;;;;;;;;4919609;29;20495;-84
2021/10/20 11:15:29;;;;;;;3.10;2.90;;;;;;;;;;4935908;29;20071;-76
2021/10/20 11:17:56;;;;;;;3.20;2.90;;;;;;;;;;4935979;29;20056;-74
2021/10/20 11:20:26;;;;;;;3.63;2.85;;;;;;;;;;4936039;29;20056;-84
2021/10/20 11:22:57;;;;;;;3.00;2.70;;;;;;;;;;4936265;29;20079;-82
2021/10/20 11:25:25;;;;;;;3.30;2.78;;;;;;;;;;4958559;28;20092;-76
2021/10/20 11:27:56;;;;;;;3.33;2.70;;;;;;;;;;4994119;28;20460;-82
2021/10/20 11:30:30;;;;;;;2.83;2.60;;;;;;;;;;4994743;28;20038;-76
2021/10/20 11:32:58;;;;;;;3.20;2.90;;;;;;;;;;4995567;28;20472;-78
2021/10/20 11:35:28;;;;;;;3.42;3.13;;;;;;;;;;4994197;28;20116;-76
2021/10/20 11:38:00;;;;;;;3.17;2.88;;;;;;;;;;4995674;28;20130;-74
2021/10/20 11:40:39;;;;;;;5.35;3.00;;;;;;;;;;4995787;28;20070;-84
2021/10/20 11:43:18;;;;;;;4.70;3.28;;;;;;;;;;4994703;28;20046;-76
2021/10/20 11:45:46;;;;;;;6.40;3.80;;;;;;;;;;4995094;28;20046;-83
2021/10/20 11:48:18;;;;;;;5.03;3.58;;;;;;;;;;4993845;28;20500;-77
2021/10/20 11:50:59;;;;;;;5.23;3.80;;;;;;;;;;4995197;28;20046;-83
2021/10/20 11:53:31;;;;;;;6.43;4.00;;;;;;;;;;4995446;28;20121;-77
2021/10/20 11:56:00;;;;;;;8.40;4.03;;;;;;;;;;4993771;28;20137;-76
2021/10/20 11:58:29;;;;;;;8.18;3.28;;;;;;;;;;4994483;28;20043;-78
2021/10/20 12:00:57;;;;;;;5.07;3.60;;;;;;;;;;4994837;28;20038;-74
2021/10/20 12:03:33;;;;;;;5.90;4.10;;;;;;;;;;4993760;28;20128;-82
2021/10/20 12:06:09;;;;;;;6.15;4.65;;;;;;;;;;4994176;28;20046;-78
2021/10/20 12:08:37;;;;;;;6.25;4.50;;;;;;;;;;4993937;28;20122;-76
2021/10/20 12:11:05;;;;;;;4.90;4.40;;;;;;;;;;4993103;28;20060;-81
2021/10/20 12:13:36;;;;;;;5.57;4.88;;;;;;;;;;4995098;28;20038;-81
2021/10/20 12:16:04;;;;;;;7.40;4.78;;;;;;;;;;4993797;28;20121;-76
2021/10/20 12:18:32;;;;;;;10.45;5.50;;;;;;;;;;4993453;28;20372;-75
2021/10/20 12:21:00;;;;;;;7.07;5.00;;;;;;;;;;4993930;28;20042;-76
2021/10/20 12:23:34;;;;;;;6.47;5.07;;;;;;;;;;4994989;28;20479;-76
2021/10/20 12:26:02;;;;;;;6.07;4.93;;;;;;;;;;4995049;28;20076;-82
2021/10/20 12:28:29;;;;;;;9.43;4.63;;;;;;;;;;4995030;28;20463;-74
2021/10/20 12:30:57;;;;;;;6.85;4.65;;;;;;;;;;4994228;28;20052;-77
2021/10/20 12:33:24;;;;;;;7.22;4.45;;;;;;;;;;4994477;28;20096;-74
2021/10/20 12:35:52;;;;;;;7.43;5.40;;;;;;;;;;4994730;28;20097;-74
2021/10/20 12:38:21;;;;;;;9.90;4.57;;;;;;;;;;4993452;28;20101;-76
2021/10/20 12:40:52;;;;;;;8.98;4.45;;;;;;;;;;4993684;28;20057;-77
2021/10/20 12:43:22;;;;;;;6.78;3.92;;;;;;;;;;4994679;28;20128;-77
2021/10/20 12:45:51;;;;;;;4.70;3.75;;;;;;;;;;4994231;28;20046;-76
2021/10/20 12:48:20;;;;;;;4.35;3.58;;;;;;;;;;4994450;28;20440;-77
2021/10/20 12:50:48;;;;;;;4.60;3.88;;;;;;;;;;4992972;28;20109;-75
2021/10/20 12:53:16;;;;;;;5.85;3.70;;;;;;;;;;4993602;28;20126;-75
2021/10/20 12:55:52;;;;;;;5.43;3.60;;;;;;;;;;4994179;28;20046;-82
2021/10/20 12:58:21;;;;;;;4.50;3.33;;;;;;;;;;4993024;28;20041;-76
2021/10/20 13:00:50;;;;;;;4.95;3.80;;;;;;;;;;4993743;28;20034;-77
2021/10/20 13:03:18;;;;;;;3.63;3.33;;;;;;;;;;4994485;28;20042;-81
2021/10/20 13:05:46;;;;;;;6.03;3.80;;;;;;;;;;4994485;28;20153;-76
2021/10/20 13:08:15;;;;;;;4.05;3.47;;;;;;;;;;4993071;28;20053;-75
2021/10/20 13:10:48;;;;;;;5.85;3.85;;;;;;;;;;4977810;28;20042;-75
2021/10/20 13:13:17;;;;;;;4.53;3.22;;;;;;;;;;4994221;28;20094;-76
2021/10/20 13:15:48;;;;;;;5.18;3.75;;;;;;;;;;4993187;28;20046;-77
2021/10/20 13:18:16;;;;;;;5.35;3.88;;;;;;;;;;4994023;28;20043;-75
2021/10/20 13:20:45;;;;;;;8.27;3.63;;;;;;;;;;4993946;28;20468;-76
2021/10/20 13:23:13;;;;;;;6.15;4.78;;;;;;;;;;4991520;28;20144;-76
2021/10/20 13:25:41;;;;;;;6.50;3.45;;;;;;;;;;4993373;28;20427;-76
2021/10/20 13:28:09;;;;;;;5.22;3.50;;;;;;;;;;4993692;28;20049;-74
2021/10/20 13:30:39;;;;;;;5.82;3.42;;;;;;;;;;4993389;28;20042;-76
2021/10/20 13:33:07;;;;;;;4.15;3.10;;;;;;;;;;4993458;28;20038;-75
2021/10/20 13:35:38;;;;;;;5.05;3.30;;;;;;;;;;4992612;28;20137;-76
2021/10/20 13:38:10;;;;;;;3.75;3.05;;;;;;;;;;5008998;28;20117;-76
2021/10/20 13:40:40;;;;;;;6.57;3.10;;;;;;;;;;4993782;28;20069;-74
2021/10/20 13:43:08;;;;;;;4.10;3.67;;;;;;;;;;4993651;28;20097;-77
2021/10/20 13:45:36;;;;;;;5.32;2.85;;;;;;;;;;4991498;28;20401;-76
2021/10/20 13:48:04;;;;;;;4.25;3.30;;;;;;;;;;4993488;28;20054;-75
2021/10/20 13:50:33;;;;;;;4.53;3.10;;;;;;;;;;4992233;28;20408;-75
2021/10/20 13:53:00;;;;;;;3.80;3.00;;;;;;;;;;4993746;28;20046;-76
2021/10/20 13:55:30;;;;;;;4.88;3.20;;;;;;;;;;4993227;28;20045;-77
2021/10/20 13:57:58;;;;;;;7.13;2.90;;;;;;;;;;4993383;28;20081;-80
2021/10/20 14:00:26;;;;;;;3.65;2.85;;;;;;;;;;4991780;28;20133;-76
2021/10/20 14:02:54;;;;;;;5.53;3.50;;;;;;;;;;4992066;28;20046;-78
2021/10/20 14:05:21;;;;;;;3.70;3.10;;;;;;;;;;4993194;28;20077;-76
2021/10/20 14:07:49;;;;;;;6.40;3.40;;;;;;;;;;4992986;28;20125;-80
2021/10/20 14:10:19;;;;;;;4.35;3.08;;;;;;;;;;4988498;28;20061;-77
2021/10/20 14:12:50;;;;;;;7.63;3.60;;;;;;;;;;4990878;28;20105;-80
2021/10/20 14:15:17;;;;;;;4.78;3.00;;;;;;;;;;4992314;28;20049;-77
2021/10/20 14:17:46;;;;;;;4.35;3.00;;;;;;;;;;5007140;28;20049;-76
2021/10/20 14:20:14;;;;;;;4.65;3.30;;;;;;;;;;4992065;28;20213;-79
2021/10/20 14:22:41;;;;;;;3.67;3.13;;;;;;;;;;4990715;28;20616;-75
2021/10/20 14:25:11;;;;;;;5.63;3.38;;;;;;;;;;4992357;28;20132;-77
2021/10/20 14:27:40;;;;;;;4.93;3.55;;;;;;;;;;4992180;28;20044;-77
2021/10/20 14:30:08;;;;;;;5.03;4.05;;;;;;;;;;4991997;28;20416;-75
2021/10/20 14:32:37;;;;;;;5.20;3.53;;;;;;;;;;4991059;28;20077;-77
2021/10/20 14:35:06;;;;;;;7.55;3.53;;;;;;;;;;4995476;28;20122;-75
2021/10/20 14:37:41;;;;;;;6.72;3.72;;;;;;;;;;4996528;28;20046;-78
2021/10/20 14:40:11;;;;;;;5.03;2.97;;;;;;;;;;4996246;28;20046;-81
2021/10/20 14:42:41;;;;;;;4.00;3.30;;;;;;;;;;4995720;28;20042;-79
2021/10/20 14:45:10;;;;;;;6.22;3.70;;;;;;;;;;4996517;28;20444;-75
2021/10/20 14:47:40;;;;;;;5.20;3.47;;;;;;;;;;4995061;28;20042;-76
2021/10/20 14:50:08;;;;;;;5.03;3.08;;;;;;;;;;4996572;28;20034;-79
2021/10/20 14:52:37;;;;;;;5.72;3.35;;;;;;;;;;5019589;28;20042;-80
2021/10/20 14:55:07;;;;;;;4.93;3.38;;;;;;;;;;4995010;28;20125;-75
2021/10/20 14:57:37;;;;;;;5.53;3.40;;;;;;;;;;4993934;28;20578;-75